Station History

Weather Underground - logo

Station Historical Data
Daily Summary for May 17, 2018 Units:  Metric    English   Both
« Previous Day
Next Day »
Daily Weekly Monthly Yearly Custom
  High: Low: Average:
Temperature: 26.8 °C 11.3 °C 19.2 °C
Dew Point: 13.7 °C 8.8 °C 10.4 °C
Humidity: 86 % 34 % 60 %
Wind Speed: 8 km/h 0 km/h 2.1 km/h
Wind Gust: 8 km/h - -
Wind:- - WSW
Pressure: 1015.8 hPa 1011.1 hPa -
Precipitation: 0 mm    
Historical Graphs
 
 
Tabular Data for May 17, 2018
Time Temperature Dew Point Pressure Wind Wind Speed Wind Gust Humidity Rainfall Rate (Hourly)
00:00 15.5 °C 9.6 °C 1015.1 hPa Calm     68 % 0 mm
00:05 15.4 °C 9.6 °C 1015.1 hPa Calm     68 % 0 mm
00:10 15.4 °C 9.5 °C 1014.8 hPa Calm     68 % 0 mm
00:15 15.4 °C 9.5 °C 1014.8 hPa Calm     68 % 0 mm
00:20 15.3 °C 9.4 °C 1014.8 hPa Calm     68 % 0 mm
00:25 15.1 °C 9.6 °C 1014.8 hPa Calm     70 % 0 mm
00:30 14.9 °C 9.9 °C 1015.1 hPa Calm     72 % 0 mm
00:35 14.7 °C 9.7 °C 1015.1 hPa Calm     72 % 0 mm
00:40 14.5 °C 9.5 °C 1014.8 hPa Calm     72 % 0 mm
00:45 14.5 °C 9.5 °C 1015.1 hPa Calm     72 % 0 mm
00:50 14.5 °C 9.5 °C 1014.8 hPa Calm     72 % 0 mm
00:55 14.7 °C 9.4 °C 1015.1 hPa North 1.6 km/h   71 % 0 mm
01:00 14.8 °C 9.4 °C 1015.1 hPa NNE 1.9 km/h 1.9 km/h 70 % 0 mm
01:05 14.9 °C 9.4 °C 1014.8 hPa WNW 1.6 km/h 1.6 km/h 70 % 0 mm
01:10 15 °C 9.3 °C 1014.8 hPa NW 1.9 km/h 1.9 km/h 69 % 0 mm
01:15 15 °C 9.3 °C 1014.8 hPa Calm     69 % 0 mm
01:20 14.9 °C 9.2 °C 1014.8 hPa Calm     69 % 0 mm
01:25 14.7 °C 9.3 °C 1014.8 hPa Calm     70 % 0 mm
01:31 14.6 °C 9.2 °C 1014.8 hPa Calm   0.6 km/h 70 % 0 mm
01:36 14.6 °C 9.2 °C 1014.8 hPa Calm     70 % 0 mm
01:41 14.4 °C 9.2 °C 1014.8 hPa Calm   0.2 km/h 71 % 0 mm
01:46 14.3 °C 9.2 °C 1014.8 hPa NW 3.2 km/h 3.2 km/h 71 % 0 mm
01:51 14.2 °C 9.2 °C 1014.8 hPa NW 1.9 km/h 1.9 km/h 72 % 0 mm
01:56 14.1 °C 9.1 °C 1014.8 hPa NW 3.7 km/h 3.7 km/h 72 % 0 mm
02:01 13.9 °C 9.2 °C 1014.8 hPa Calm     73 % 0 mm
02:06 13.9 °C 9.1 °C 1014.8 hPa NNW 1.6 km/h 1.6 km/h 73 % 0 mm
02:11 13.8 °C 9.3 °C 1014.8 hPa Calm     74 % 0 mm
02:16 13.8 °C 9.2 °C 1014.8 hPa Calm     74 % 0 mm
02:21 13.7 °C 9.2 °C 1014.4 hPa Calm     74 % 0 mm
02:26 13.7 °C 9.2 °C 1014.4 hPa NNW 1.9 km/h 1.9 km/h 74 % 0 mm
02:31 13.6 °C 9.3 °C 1014.4 hPa WNW 1.9 km/h 1.9 km/h 75 % 0 mm
02:36 13.5 °C 9.3 °C 1014.4 hPa WNW 1.9 km/h   76 % 0 mm
02:41 13.4 °C 9.2 °C 1014.4 hPa Calm     76 % 0 mm
02:46 13.3 °C 9.4 °C 1014.8 hPa North 1.9 km/h 1.9 km/h 77 % 0 mm
02:51 13.2 °C 9.3 °C 1014.8 hPa Calm     77 % 0 mm
02:56 13.2 °C 9.3 °C 1014.8 hPa NNW 1.9 km/h 1.9 km/h 77 % 0 mm
03:01 13.2 °C 9.4 °C 1014.4 hPa Calm     78 % 0 mm
03:06 13.1 °C 9.3 °C 1014.8 hPa NNW 3.7 km/h 3.7 km/h 78 % 0 mm
03:11 13 °C 9.4 °C 1014.8 hPa Calm     79 % 0 mm
03:16 12.9 °C 9.4 °C 1014.8 hPa Calm     79 % 0 mm
03:21 12.9 °C 9.3 °C 1014.8 hPa Calm     79 % 0 mm
03:26 12.8 °C 9.3 °C 1014.8 hPa NW 1.9 km/h 1.9 km/h 79 % 0 mm
03:31 12.8 °C 9.4 °C 1014.8 hPa Calm     80 % 0 mm
03:36 12.7 °C 9.3 °C 1014.8 hPa Calm     80 % 0 mm
03:41 12.6 °C 9.2 °C 1014.8 hPa Calm     80 % 0 mm
03:46 12.6 °C 9.4 °C 1014.8 hPa Calm     81 % 0 mm
03:51 12.5 °C 9.2 °C 1014.8 hPa Calm     80 % 0 mm
03:56 12.4 °C 9.3 °C 1014.8 hPa Calm     81 % 0 mm
04:01 12.4 °C 9.2 °C 1014.8 hPa Calm     81 % 0 mm
04:06 12.3 °C 9.2 °C 1014.8 hPa Calm     81 % 0 mm
04:11 12.2 °C 9.1 °C 1014.8 hPa Calm     81 % 0 mm
04:16 12.2 °C 9.2 °C 1014.8 hPa Calm     82 % 0 mm
04:21 12.1 °C 9.1 °C 1014.8 hPa Calm     82 % 0 mm
04:26 12 °C 9 °C 1014.8 hPa Calm     82 % 0 mm
04:31 11.9 °C 8.9 °C 1014.8 hPa Calm     82 % 0 mm
04:36 11.8 °C 8.8 °C 1014.8 hPa Calm     82 % 0 mm
04:41 11.7 °C 8.9 °C 1014.8 hPa Calm     83 % 0 mm
04:46 11.7 °C 8.9 °C 1014.8 hPa Calm     83 % 0 mm
04:51 11.7 °C 9.1 °C 1014.8 hPa Calm     84 % 0 mm
04:56 11.6 °C 9 °C 1014.8 hPa Calm     84 % 0 mm
05:01 11.6 °C 8.9 °C 1014.8 hPa NNW 1.9 km/h   84 % 0 mm
05:06 11.6 °C 8.9 °C 1015.1 hPa Calm     84 % 0 mm
05:11 11.6 °C 8.9 °C 1015.1 hPa Calm     84 % 0 mm
05:16 11.5 °C 8.9 °C 1014.8 hPa Calm     84 % 0 mm
05:21 11.4 °C 8.8 °C 1015.1 hPa Calm     84 % 0 mm
05:26 11.4 °C 8.8 °C 1015.1 hPa Calm     84 % 0 mm
05:31 11.5 °C 8.9 °C 1015.1 hPa Calm     84 % 0 mm
05:36 11.5 °C 8.9 °C 1015.1 hPa Calm     84 % 0 mm
05:41 11.5 °C 9.1 °C 1015.1 hPa Calm     85 % 0 mm
05:46 11.5 °C 8.9 °C 1015.1 hPa Calm     84 % 0 mm
05:51 11.4 °C 8.8 °C 1015.1 hPa Calm     84 % 0 mm
05:56 11.4 °C 8.9 °C 1015.1 hPa Calm     85 % 0 mm
06:01 11.4 °C 8.9 °C 1015.1 hPa Calm     85 % 0 mm
06:07 11.4 °C 8.9 °C 1015.1 hPa Calm     85 % 0 mm
06:12 11.3 °C 8.9 °C 1015.1 hPa Calm     85 % 0 mm
06:17 11.3 °C 8.9 °C 1015.1 hPa Calm     85 % 0 mm
06:22 11.3 °C 9 °C 1015.1 hPa Calm     86 % 0 mm
06:27 11.3 °C 9.1 °C 1015.5 hPa Calm     86 % 0 mm
06:32 11.4 °C 9.1 °C 1015.1 hPa Calm     86 % 0 mm
06:37 11.6 °C 9.1 °C 1015.1 hPa Calm     85 % 0 mm
06:42 11.7 °C 9.3 °C 1015.1 hPa Calm     85 % 0 mm
06:47 11.9 °C 9.3 °C 1015.5 hPa WNW 1.9 km/h 1.9 km/h 84 % 0 mm
06:52 12.1 °C 9.5 °C 1015.5 hPa Calm     84 % 0 mm
06:57 12.4 °C 9.6 °C 1015.5 hPa Calm     83 % 0 mm
07:02 12.8 °C 9.8 °C 1015.5 hPa Calm     82 % 0 mm
07:07 13.1 °C 9.7 °C 1015.5 hPa WNW 1.9 km/h 1.9 km/h 80 % 0 mm
07:12 13.3 °C 9.7 °C 1015.5 hPa Calm     79 % 0 mm
07:14 13.4 °C 9.9 °C 1015.5 hPa Calm     79 % 0 mm
07:19 13.8 °C 10 °C 1015.5 hPa Calm     78 % 0 mm
07:24 13.9 °C 9.9 °C 1015.5 hPa Calm     77 % 0 mm
07:29 14.3 °C 9.9 °C 1015.8 hPa Calm     75 % 0 mm
07:34 14.4 °C 9.8 °C 1015.8 hPa Calm     74 % 0 mm
07:39 15.2 °C 10.4 °C 1015.8 hPa Calm     73 % 0 mm
07:44 15.6 °C 9.9 °C 1015.8 hPa Calm     69 % 0 mm
07:49 15.7 °C 10.1 °C 1015.5 hPa Calm     69 % 0 mm
07:54 16 °C 10.3 °C 1015.5 hPa Calm     69 % 0 mm
07:59 16.5 °C 10.6 °C 1015.5 hPa Calm     68 % 0 mm
08:04 16.9 °C 10.7 °C 1015.5 hPa ESE 1.9 km/h 1.9 km/h 67 % 0 mm
08:09 16.8 °C 10.7 °C 1015.8 hPa ENE 3.7 km/h 3.7 km/h 67 % 0 mm
08:14 16.6 °C 10.7 °C 1015.5 hPa WNW 4.8 km/h 4.8 km/h 68 % 0 mm
08:19 16.6 °C 10.7 °C 1015.8 hPa SSE 5.6 km/h 5.6 km/h 68 % 0 mm
08:24 16.7 °C 10.5 °C 1015.5 hPa SE 3.7 km/h 3.7 km/h 67 % 0 mm
08:29 16.7 °C 10.8 °C 1015.8 hPa NE 4.8 km/h 4.8 km/h 68 % 0 mm
08:34 17 °C 10.8 °C 1015.8 hPa SE 4.8 km/h 4.8 km/h 67 % 0 mm
08:39 17.1 °C 10.9 °C 1015.5 hPa ENE 5.6 km/h 5.6 km/h 67 % 0 mm
08:44 17.3 °C 10.6 °C 1015.5 hPa ESE 8 km/h 8 km/h 65 % 0 mm
08:49 17.2 °C 10.8 °C 1015.5 hPa South 5.6 km/h 5.6 km/h 66 % 0 mm
08:54 17.4 °C 10.8 °C 1015.5 hPa South 1.9 km/h 1.9 km/h 65 % 0 mm
08:59 17.6 °C 10.7 °C 1015.5 hPa NW 3.7 km/h 3.7 km/h 64 % 0 mm
09:04 17.8 °C 10.9 °C 1015.5 hPa South 3.7 km/h 3.7 km/h 64 % 0 mm
09:09 17.9 °C 11.1 °C 1015.5 hPa South 5.6 km/h 5.6 km/h 64 % 0 mm
09:14 18.2 °C 11.3 °C 1015.5 hPa SE 1.9 km/h   64 % 0 mm
09:19 18.6 °C 11.2 °C 1015.5 hPa SSW 4.8 km/h 4.8 km/h 62 % 0 mm
09:24 18.7 °C 11.2 °C 1015.5 hPa South 5.6 km/h 5.6 km/h 62 % 0 mm
09:29 18.8 °C 11.2 °C 1015.5 hPa SSE 1.9 km/h 1.9 km/h 61 % 0 mm
09:35 19 °C 11.1 °C 1015.5 hPa NW 3.7 km/h 3.7 km/h 60 % 0 mm
09:40 19 °C 11.6 °C 1015.5 hPa SSW 3.7 km/h 3.7 km/h 62 % 0 mm
09:45 18.9 °C 11.4 °C 1015.5 hPa South 5.6 km/h 5.6 km/h 62 % 0 mm
09:50 19.1 °C 11.4 °C 1015.5 hPa SW 5.6 km/h 5.6 km/h 61 % 0 mm
09:55 19.1 °C 10.7 °C 1015.5 hPa WSW 1.9 km/h 1.9 km/h 58 % 0 mm
10:00 18.9 °C 11 °C 1015.1 hPa South 1.9 km/h 1.9 km/h 60 % 0 mm
10:05 19.4 °C 11.7 °C 1015.1 hPa East 1.9 km/h 1.9 km/h 61 % 0 mm
10:10 19.7 °C 11.7 °C 1015.1 hPa South 5.6 km/h 5.6 km/h 60 % 0 mm
10:15 19.9 °C 11.9 °C 1015.1 hPa SW 1.9 km/h 1.9 km/h 60 % 0 mm
10:20 20.1 °C 11.3 °C 1015.1 hPa NNW 1.9 km/h 1.9 km/h 57 % 0 mm
10:25 19.8 °C 11.3 °C 1015.1 hPa SSE 3.7 km/h 3.7 km/h 58 % 0 mm
10:30 19.8 °C 11 °C 1015.1 hPa NW 5.6 km/h 5.6 km/h 57 % 0 mm
10:35 19.6 °C 11.6 °C 1015.1 hPa SE 1.9 km/h 1.9 km/h 60 % 0 mm
10:40 19.9 °C 11.2 °C 1015.1 hPa ESE 5.6 km/h 5.6 km/h 57 % 0 mm
10:45 20.2 °C 11.9 °C 1014.8 hPa ESE 3.7 km/h   59 % 0 mm
10:50 20.5 °C 12.4 °C 1014.8 hPa SSE 1.9 km/h   60 % 0 mm
10:55 20.9 °C 11.6 °C 1014.8 hPa NW 3.7 km/h 3.7 km/h 55 % 0 mm
11:00 21.1 °C 11.9 °C 1014.8 hPa ESE 1.9 km/h 1.9 km/h 56 % 0 mm
11:05 21.4 °C 12.5 °C 1014.8 hPa SE 1.9 km/h   57 % 0 mm
11:10 21.7 °C 12 °C 1014.8 hPa SSE 1.9 km/h 1.9 km/h 54 % 0 mm
11:15 21.6 °C 12.1 °C 1014.8 hPa ESE 5.6 km/h 5.6 km/h 55 % 0 mm
11:20 21.7 °C 11.7 °C 1014.8 hPa NW 3.7 km/h 3.7 km/h 53 % 0 mm
11:25 21.6 °C 11.3 °C 1014.8 hPa WNW 3.7 km/h 3.7 km/h 52 % 0 mm
11:30 21.6 °C 12.4 °C 1014.8 hPa NW 3.7 km/h   56 % 0 mm
11:35 21.7 °C 11.7 °C 1014.4 hPa ENE 1.9 km/h 1.9 km/h 53 % 0 mm
11:40 22 °C 12.6 °C 1014.8 hPa West 5.6 km/h 5.6 km/h 55 % 0 mm
11:45 22.3 °C 11.4 °C 1014.4 hPa West 1.9 km/h 1.9 km/h 50 % 0 mm
11:50 22.3 °C 11.7 °C 1014.4 hPa WNW 1.9 km/h   51 % 0 mm
11:55 22.5 °C 11.6 °C 1014.4 hPa North 5.6 km/h 5.6 km/h 50 % 0 mm
12:00 22.4 °C 11.8 °C 1014.4 hPa NW 5.6 km/h 5.6 km/h 51 % 0 mm
12:05 22.4 °C 11.8 °C 1014.1 hPa WNW 5.6 km/h 5.6 km/h 51 % 0 mm
12:10 22.8 °C 11.5 °C 1014.1 hPa NNW 1.9 km/h   49 % 0 mm
12:15 22.9 °C 12.2 °C 1014.1 hPa Calm     51 % 0 mm
12:20 23.6 °C 13.7 °C 1014.1 hPa NNW 5.6 km/h 5.6 km/h 54 % 0 mm
12:25 23.6 °C 11.6 °C 1014.1 hPa West 3.7 km/h 3.7 km/h 47 % 0 mm
12:30 23.4 °C 12.1 °C 1014.1 hPa NW 3.7 km/h 3.7 km/h 49 % 0 mm
12:36 23.9 °C 12.5 °C 1014.1 hPa NNW 3.2 km/h 3.2 km/h 49 % 0 mm
12:41 23.8 °C 11.5 °C 1014.1 hPa East 3.7 km/h 3.7 km/h 46 % 0 mm
12:46 23.6 °C 10.9 °C 1014.1 hPa NW 3.7 km/h 3.7 km/h 45 % 0 mm
12:51 23.7 °C 11.7 °C 1014.1 hPa West 3.7 km/h 3.7 km/h 47 % 0 mm
12:56 24.1 °C 11.4 °C 1013.8 hPa NW 1.9 km/h 1.9 km/h 45 % 0 mm
13:01 24.2 °C 11.2 °C 1013.8 hPa NW 5.6 km/h 5.6 km/h 44 % 0 mm
13:06 23.9 °C 11.6 °C 1013.8 hPa NW 1.9 km/h 1.9 km/h 46 % 0 mm
13:11 24.3 °C 11.2 °C 1013.8 hPa NNW 3.7 km/h 3.7 km/h 44 % 0 mm
13:16 24.7 °C 12.3 °C 1013.8 hPa NE 1.9 km/h 1.9 km/h 46 % 0 mm
13:21 25 °C 11.6 °C 1013.8 hPa NNE 1.9 km/h 1.9 km/h 43 % 0 mm
13:26 24.9 °C 11.4 °C 1013.8 hPa NW 3.7 km/h 3.7 km/h 43 % 0 mm
13:31 24.9 °C 10.3 °C 1013.8 hPa ENE 1.9 km/h 1.9 km/h 40 % 0 mm
13:36 25 °C 12.2 °C 1013.8 hPa NW 3.7 km/h 3.7 km/h 45 % 0 mm
13:41 25.4 °C 11.9 °C 1013.8 hPa Calm   0.2 km/h 43 % 0 mm
13:46 25.3 °C 11.1 °C 1013.8 hPa North 3.7 km/h 3.7 km/h 41 % 0 mm
13:51 25.4 °C 11.2 °C 1013.4 hPa ESE 1.9 km/h   41 % 0 mm
13:56 25.6 °C 11.4 °C 1013.4 hPa Calm     41 % 0 mm
14:01 25.7 °C 11.4 °C 1013.4 hPa WNW 3.7 km/h 3.7 km/h 41 % 0 mm
14:06 25.6 °C 11.7 °C 1013.4 hPa West 3.7 km/h 3.7 km/h 42 % 0 mm
14:11 25.6 °C 12.4 °C 1013.4 hPa South 3.7 km/h 3.7 km/h 44 % 0 mm
14:16 26 °C 11.7 °C 1013.4 hPa NNW 5.6 km/h 5.6 km/h 41 % 0 mm
14:21 25.7 °C 11.4 °C 1013.4 hPa NW 5.6 km/h 5.6 km/h 41 % 0 mm
14:26 25.4 °C 11.2 °C 1013.1 hPa East 5.6 km/h 5.6 km/h 41 % 0 mm
14:31 25.6 °C 11.3 °C 1013.1 hPa West 5.6 km/h 5.6 km/h 41 % 0 mm
14:36 25.4 °C 10.4 °C 1013.1 hPa NW 5.6 km/h 5.6 km/h 39 % 0 mm
14:41 25.3 °C 10.3 °C 1013.1 hPa NNW 5.6 km/h 5.6 km/h 39 % 0 mm
14:46 25.3 °C 9.9 °C 1013.1 hPa WNW 3.7 km/h 3.7 km/h 38 % 0 mm
14:51 25.3 °C 9.9 °C 1012.8 hPa NW 3.7 km/h 3.7 km/h 38 % 0 mm
14:56 25.7 °C 11.5 °C 1012.8 hPa SSE 3.7 km/h   41 % 0 mm
15:01 26.2 °C 11.5 °C 1012.8 hPa NNW 6.4 km/h 6.4 km/h 40 % 0 mm
15:06 25.9 °C 11.3 °C 1012.8 hPa NW 5.6 km/h 5.6 km/h 40 % 0 mm
15:11 25.9 °C 11.7 °C 1012.8 hPa WNW 3.7 km/h 3.7 km/h 41 % 0 mm
15:16 26 °C 10.9 °C 1012.8 hPa NNW 4.8 km/h 4.8 km/h 39 % 0 mm
15:21 26.1 °C 10.7 °C 1012.4 hPa SW 1.9 km/h 1.9 km/h 38 % 0 mm
15:26 26.2 °C 11.9 °C 1012.4 hPa WNW 5.6 km/h 5.6 km/h 41 % 0 mm
15:31 26.2 °C 11.1 °C 1012.4 hPa NW 5.6 km/h 5.6 km/h 39 % 0 mm
15:36 26 °C 11.3 °C 1012.4 hPa NW 5.6 km/h 5.6 km/h 40 % 0 mm
15:42 25.8 °C 11.5 °C 1012.4 hPa WNW 5.6 km/h 5.6 km/h 41 % 0 mm
15:47 25.5 °C 10.5 °C 1012.4 hPa WSW 5.6 km/h 5.6 km/h 39 % 0 mm
15:50 25.6 °C 10.9 °C 1012.4 hPa NW 3.7 km/h 3.7 km/h 40 % 0 mm
15:55 26.1 °C 11 °C 1012.1 hPa NNE 5.6 km/h 5.6 km/h 39 % 0 mm
16:00 25.9 °C 10.9 °C 1012.1 hPa West 5.6 km/h 5.6 km/h 39 % 0 mm
16:05 25.8 °C 11.2 °C 1012.1 hPa NW 5.6 km/h 5.6 km/h 40 % 0 mm
16:10 26.1 °C 11.4 °C 1012.1 hPa NW 5.6 km/h 5.6 km/h 40 % 0 mm
16:15 26.3 °C 12 °C 1012.1 hPa NE 3.7 km/h 3.7 km/h 41 % 0 mm
16:20 26.4 °C 11.3 °C 1012.1 hPa NNW 5.6 km/h 5.6 km/h 39 % 0 mm
16:25 26 °C 10.9 °C 1012.1 hPa WNW 3.7 km/h 3.7 km/h 39 % 0 mm
16:30 26.1 °C 11 °C 1012.1 hPa Calm     39 % 0 mm
16:35 26.3 °C 10.9 °C 1011.7 hPa NW 5.6 km/h 5.6 km/h 38 % 0 mm
16:40 26.5 °C 11.4 °C 1011.7 hPa SE 1.9 km/h 1.9 km/h 39 % 0 mm
16:45 26.8 °C 10.9 °C 1011.7 hPa SW 5.6 km/h 5.6 km/h 37 % 0 mm
16:50 26.7 °C 10.8 °C 1011.7 hPa NW 7.4 km/h 7.4 km/h 37 % 0 mm
16:55 26.6 °C 10.3 °C 1011.7 hPa WNW 5.6 km/h 5.6 km/h 36 % 0 mm
17:00 26.8 °C 10.9 °C 1011.7 hPa SW 4.8 km/h 4.8 km/h 37 % 0 mm
17:05 26.5 °C 10.2 °C 1011.7 hPa NW 5.6 km/h 5.6 km/h 36 % 0 mm
17:10 26.3 °C 10.1 °C 1011.7 hPa NW 3.7 km/h 3.7 km/h 36 % 0 mm
17:15 26.3 °C 10.5 °C 1011.4 hPa NW 5.6 km/h 5.6 km/h 37 % 0 mm
17:20 26.5 °C 9.8 °C 1011.4 hPa North 5.6 km/h 5.6 km/h 35 % 0 mm
17:25 26.5 °C 9.3 °C 1011.4 hPa NW 5.6 km/h 5.6 km/h 34 % 0 mm
17:30 26.3 °C 9.6 °C 1011.4 hPa NW 5.6 km/h 5.6 km/h 35 % 0 mm
17:35 26.3 °C 9.7 °C 1011.4 hPa NW 5.6 km/h 5.6 km/h 35 % 0 mm
17:40 26.4 °C 9.7 °C 1011.4 hPa NNE 5.6 km/h 5.6 km/h 35 % 0 mm
17:45 26.4 °C 9.7 °C 1011.4 hPa NNW 1.9 km/h 1.9 km/h 35 % 0 mm
17:50 26.3 °C 9.6 °C 1011.4 hPa NW 5.6 km/h 5.6 km/h 35 % 0 mm
17:55 26.2 °C 9.9 °C 1011.4 hPa NW 3.7 km/h 3.7 km/h 36 % 0 mm
18:00 26.1 °C 9.4 °C 1011.4 hPa NW 5.6 km/h 5.6 km/h 35 % 0 mm
18:05 26.1 °C 9.4 °C 1011.1 hPa NW 5.6 km/h 5.6 km/h 35 % 0 mm
18:10 26.1 °C 9.9 °C 1011.1 hPa North 3.7 km/h 3.7 km/h 36 % 0 mm
18:15 26.1 °C 9.4 °C 1011.1 hPa NW 5.6 km/h 5.6 km/h 35 % 0 mm
18:20 26 °C 9.3 °C 1011.1 hPa NW 5.6 km/h 5.6 km/h 35 % 0 mm
18:26 26 °C 9.3 °C 1011.1 hPa West 5.6 km/h 5.6 km/h 35 % 0 mm
18:31 26 °C 9.8 °C 1011.1 hPa NW 1.9 km/h 1.9 km/h 36 % 0 mm
18:36 25.9 °C 9.3 °C 1011.1 hPa NW 5.6 km/h 5.6 km/h 35 % 0 mm
18:41 25.7 °C 9.5 °C 1011.1 hPa WNW 3.7 km/h 3.7 km/h 36 % 0 mm
18:46 25.5 °C 9.7 °C 1011.1 hPa NW 3.7 km/h 3.7 km/h 37 % 0 mm
18:51 25.2 °C 9.9 °C 1011.1 hPa NW 1.9 km/h 1.9 km/h 38 % 0 mm
18:56 25 °C 9.7 °C 1011.1 hPa WNW 1.9 km/h 1.9 km/h 38 % 0 mm
19:01 24.8 °C 9.5 °C 1011.1 hPa NNE 3.7 km/h 3.7 km/h 38 % 0 mm
19:06 24.6 °C 9.3 °C 1011.1 hPa NW 1.9 km/h 1.9 km/h 38 % 0 mm
19:11 24.4 °C 9.6 °C 1011.1 hPa NW 5.6 km/h 5.6 km/h 39 % 0 mm
19:16 24.2 °C 9.8 °C 1011.1 hPa NW 1.9 km/h 1.9 km/h 40 % 0 mm
19:21 24.1 °C 9.6 °C 1011.1 hPa Calm     40 % 0 mm
19:26 23.9 °C 9.8 °C 1011.1 hPa Calm     41 % 0 mm
19:31 23.7 °C 9.7 °C 1011.1 hPa NW 1.9 km/h 1.9 km/h 41 % 0 mm
19:36 23.5 °C 9.5 °C 1011.1 hPa NW 1.6 km/h   41 % 0 mm
19:41 23.3 °C 9.7 °C 1011.1 hPa WNW 1.6 km/h 1.6 km/h 42 % 0 mm
19:46 23.1 °C 9.8 °C 1011.1 hPa WNW 1.9 km/h   43 % 0 mm
19:51 22.8 °C 9.6 °C 1011.1 hPa WNW 1.9 km/h 1.9 km/h 43 % 0 mm
19:56 22.6 °C 9.7 °C 1011.1 hPa Calm     44 % 0 mm
20:01 22.4 °C 9.9 °C 1011.4 hPa Calm     45 % 0 mm
20:06 22.2 °C 9.7 °C 1011.1 hPa Calm   0.2 km/h 45 % 0 mm
20:11 22.1 °C 10.2 °C 1011.4 hPa Calm     47 % 0 mm
20:16 21.9 °C 10.4 °C 1011.4 hPa Calm     48 % 0 mm
20:21 21.7 °C 9.9 °C 1011.4 hPa Calm     47 % 0 mm
20:26 21.6 °C 10.4 °C 1011.4 hPa Calm     49 % 0 mm
20:31 21.3 °C 10.8 °C 1011.4 hPa Calm     51 % 0 mm
20:36 21.1 °C 10.8 °C 1011.4 hPa Calm     52 % 0 mm
20:41 20.8 °C 10.6 °C 1011.4 hPa Calm     52 % 0 mm
20:46 20.6 °C 10.7 °C 1011.4 hPa Calm     53 % 0 mm
20:52 20.4 °C 10.8 °C 1011.7 hPa Calm     54 % 0 mm
20:57 20.2 °C 10.6 °C 1011.7 hPa Calm     54 % 0 mm
21:02 20 °C 10.7 °C 1011.7 hPa Calm     55 % 0 mm
21:07 19.8 °C 10.7 °C 1011.7 hPa Calm     56 % 0 mm
21:12 19.7 °C 10.7 °C 1011.7 hPa Calm     56 % 0 mm
21:17 19.5 °C 10.2 °C 1011.7 hPa Calm     55 % 0 mm
21:22 19.4 °C 10.9 °C 1011.7 hPa Calm     58 % 0 mm
21:27 19.2 °C 10.8 °C 1011.7 hPa Calm     58 % 0 mm
21:32 19.1 °C 10.8 °C 1011.7 hPa Calm     59 % 0 mm
21:37 18.9 °C 11 °C 1011.7 hPa Calm     60 % 0 mm
21:42 18.9 °C 11.4 °C 1011.7 hPa Calm     62 % 0 mm
21:47 18.8 °C 11.4 °C 1011.7 hPa Calm     62 % 0 mm
21:52 18.7 °C 11.6 °C 1011.7 hPa Calm     63 % 0 mm
21:57 18.6 °C 11.7 °C 1011.7 hPa Calm     64 % 0 mm
22:02 18.4 °C 11.7 °C 1011.7 hPa Calm     65 % 0 mm
22:07 18.3 °C 11.8 °C 1011.7 hPa Calm     66 % 0 mm
22:12 18.1 °C 11.7 °C 1012.1 hPa Calm     66 % 0 mm
22:17 18 °C 11.8 °C 1012.1 hPa Calm     67 % 0 mm
22:22 18 °C 12 °C 1012.1 hPa Calm     68 % 0 mm
22:27 17.9 °C 11.5 °C 1012.1 hPa Calm     66 % 0 mm
22:32 18.2 °C 11 °C 1012.1 hPa Calm     63 % 0 mm
22:37 18.4 °C 11.5 °C 1012.1 hPa Calm     64 % 0 mm
22:42 18.7 °C 11.6 °C 1012.1 hPa Calm     63 % 0 mm
22:47 18.8 °C 11.4 °C 1012.1 hPa Calm     62 % 0 mm
22:52 18.7 °C 11.6 °C 1012.1 hPa Calm     63 % 0 mm
22:57 18.6 °C 12.1 °C 1012.1 hPa Calm     66 % 0 mm
23:02 18.4 °C 11.9 °C 1012.1 hPa Calm     66 % 0 mm
23:07 18.3 °C 12.8 °C 1012.1 hPa Calm     70 % 0 mm
23:12 18.1 °C 12.1 °C 1012.1 hPa Calm     68 % 0 mm
23:17 17.9 °C 12.4 °C 1012.1 hPa Calm     70 % 0 mm
23:22 17.8 °C 12.7 °C 1012.1 hPa Calm     72 % 0 mm
23:27 17.5 °C 12.4 °C 1012.1 hPa Calm     72 % 0 mm
23:32 17.3 °C 11.9 °C 1012.1 hPa Calm     71 % 0 mm
23:37 17.2 °C 11.9 °C 1012.1 hPa Calm     71 % 0 mm
23:42 17.2 °C 11.9 °C 1012.1 hPa Calm     71 % 0 mm
23:48 17.1 °C 11.8 °C 1012.1 hPa Calm     71 % 0 mm
23:53 17 °C 11.9 °C 1012.1 hPa Calm     72 % 0 mm
23:58 16.9 °C 11.6 °C 1012.1 hPa Calm     71 % 0 mm
Park Place, Exeter, Tulare County, California, USA
Compliments of Weather Underground - 2.75 mb